NAV weather

Public forecast

Using degrees Celsius for public forecast. Weather courtesy of forecast.io.

Current aviation weather report (METAR) for Nevşehir Kapadokya Airport

Retrieved 2020/08/15 20:20 UTC (18 minutes ago):

LTAZ 152020Z 03014G25KT CAVOK 19/07 Q1013

Aviation forecast (TAF) for Nevşehir Kapadokya Airport

Retrieved 2020/08/15 18:03 UTC (3 hours ago):

TAF LTAZ 151640Z 1518/1618 05015G25KT CAVOK BECMG 1520/1523 VRB02KT BECMG 1608/1610 36012KT